Hamnavoe — VSTY7 — position and weather

sailwx.info

Track history (hours):
 
Tides and Currents Weather Stations Pressure Air Temp Water Temp Dewpoint Dewpoint Depression Visibility Wind Speed Wind Dir Waves Ship Positions

Hamnavoe

Operator: NorthLink Orkey & Shetland Ferries Ltd

Last reported at 2014-Oct-31 13:26 UTC. Time now 2014-Oct-31 14:24 UTC.
Position N 58°58' W 003°18'.

Length 112 m; draft 4.4 m.

Type: Ship. MMSI: 235449000.

Date/timePositionNaut miles runAvg speedWind from/ knotsBaromVisibWave heightAir tempDewpointWater temp
2014-Oct-31 13:26N 58°58' W 003°18'0 0.0
2014-Oct-31 12:32N 58°58' W 003°18'0 0.0
2014-Oct-31 11:32N 58°58' W 003°18'0 0.0
2014-Oct-31 10:29N 58°58' W 003°18'8 8.4
2014-Oct-31 09:33N 58°52' W 003°28'9 4.3
2014-Oct-31 07:33N 58°44' W 003°30'1515.2
2014-Oct-31 06:33N 58°57' W 003°18'0 0.3
2014-Oct-31 05:32N 58°58' W 003°18'0 0.0
2014-Oct-31 04:26N 58°58' W 003°18'0 0.0
2014-Oct-31 03:32N 58°58' W 003°18'0 0.0
2014-Oct-31 02:32N 58°58' W 003°18'0 0.0
2014-Oct-31 01:32N 58°58' W 003°18'0 0.0
2014-Oct-31 00:32N 58°58' W 003°18'0 0.0
2014-Oct-30 23:32N 58°58' W 003°18'0 0.0
2014-Oct-30 22:32N 58°58' W 003°18'0 0.0
2014-Oct-30 21:32N 58°58' W 003°18'0 0.0
2014-Oct-30 20:27N 58°58' W 003°18'1213.0
2014-Oct-30 19:33N 58°48' W 003°30'1111.4
2014-Oct-30 18:33N 58°37' W 003°32'9 9.2
2014-Oct-30 17:33N 58°46' W 003°29'1413.6
2014-Oct-30 16:33N 58°58' W 003°18'0 0.0
2014-Oct-30 15:33N 58°58' W 003°18'0 0.0
2014-Oct-30 14:33N 58°58' W 003°18'0 0.0
2014-Oct-30 13:32N 58°58' W 003°18'0 0.0
2014-Oct-30 12:22N 58°58' W 003°18'0 0.0
2014-Oct-30 10:26N 58°58' W 003°18'7 8.3
2014-Oct-30 09:33N 58°53' W 003°28'1615.0
2014-Oct-30 08:29N 58°37' W 003°32'6 6.9
2014-Oct-30 07:33N 58°43' W 003°30'1515.5
2014-Oct-30 06:33N 58°57' W 003°17'1 0.9
2014-Oct-30 05:32N 58°58' W 003°18'0 0.0
2014-Oct-30 00:32N 58°58' W 003°18'0 0.0
2014-Oct-29 20:33N 58°58' W 003°18'1515.4
2014-Oct-29 19:33N 58°44' W 003°31'5 3.5
2014-Oct-29 18:04N 58°39' W 003°32'918.3
2014-Oct-29 17:33N 58°48' W 003°30'12 7.9
2014-Oct-29 16:04N 58°58' W 003°18'0 0.0
2014-Oct-29 14:25N 58°58' W 003°18'0 0.0
2014-Oct-29 13:26N 58°58' W 003°18'0 0.0
2014-Oct-29 12:14N 58°58' W 003°18'0 0.0
2014-Oct-29 10:27N 58°58' W 003°18'910.3
2014-Oct-29 09:33N 58°51' W 003°29'6 2.9
2014-Oct-29 07:33N 58°45' W 003°30'1414.1
2014-Oct-29 06:33N 58°58' W 003°18'0 0.2
2014-Oct-29 05:33N 58°58' W 003°18'0 0.0
2014-Oct-29 04:33N 58°58' W 003°18'0 0.0
2014-Oct-29 03:31N 58°58' W 003°18'0 0.0
2014-Oct-29 02:20N 58°58' W 003°18'0 0.0
2014-Oct-29 01:33N 58°58' W 003°18'0 0.0
2014-Oct-29 00:33N 58°58' W 003°18'0 0.0
2014-Oct-28 23:33N 58°58' W 003°18'0 0.0
2014-Oct-28 22:33N 58°58' W 003°18'0 0.0
2014-Oct-28 21:33N 58°58' W 003°18'0 0.0
2014-Oct-28 20:33N 58°58' W 003°18'1313.0
2014-Oct-28 19:33N 58°46' W 003°30'9 6.1
2014-Oct-28 18:07N 58°38' W 003°31'1018.1
2014-Oct-28 17:33N 58°48' W 003°30'1211.8
2014-Oct-28 16:33N 58°58' W 003°18'0 0.0
2014-Oct-28 12:17N 58°58' W 003°18'0 0.0
2014-Oct-28 11:29N 58°58' W 003°18'0 0.0
2014-Oct-28 10:23N 58°58' W 003°18'8 9.5
2014-Oct-28 09:33N 58°52' W 003°28'1610.9
2014-Oct-28 08:08N 58°37' W 003°32'711.9
2014-Oct-28 07:33N 58°43' W 003°30'1515.4
2014-Oct-28 06:33N 58°57' W 003°18'0 0.5
2014-Oct-28 05:32N 58°58' W 003°18'0 0.0
2014-Oct-28 04:32N 58°58' W 003°18'0 0.0
2014-Oct-28 03:32N 58°58' W 003°18'0 0.0
2014-Oct-28 02:32N 58°58' W 003°18'0 0.0
2014-Oct-28 01:32N 58°58' W 003°18'0 0.0
2014-Oct-28 00:32N 58°58' W 003°18'0 0.0
2014-Oct-27 23:32N 58°58' W 003°18'0 0.0
2014-Oct-27 22:32N 58°58' W 003°18'0 0.0
2014-Oct-27 21:32N 58°58' W 003°18'0 0.0
2014-Oct-27 20:31N 58°58' W 003°18'1313.0
2014-Oct-27 19:33N 58°47' W 003°30'1010.4
2014-Oct-27 18:33N 58°37' W 003°32'1211.6
2014-Oct-27 17:33N 58°48' W 003°30'1111.5
2014-Oct-27 16:33N 58°58' W 003°18'0 0.0
2014-Oct-27 15:30N 58°58' W 003°18'0 0.0
2014-Oct-27 14:30N 58°58' W 003°18'0 0.0
2014-Oct-27 13:30N 58°58' W 003°18'0 0.0
2014-Oct-27 12:30N 58°58' W 003°18'0 0.0
2014-Oct-27 11:30N 58°58' W 003°18'0 0.0
2014-Oct-27 10:30N 58°58' W 003°18'9 9.4
2014-Oct-27 09:33N 58°51' W 003°29'1511.1
2014-Oct-27 08:15N 58°37' W 003°32'812.1
2014-Oct-27 07:33N 58°45' W 003°31'1414.2
2014-Oct-27 06:33N 58°57' W 003°17'1 0.3
2014-Oct-27 04:31N 58°58' W 003°18'0 0.0
2014-Oct-27 03:31N 58°58' W 003°18'0 0.0
2014-Oct-27 02:31N 58°58' W 003°18'0 0.0
2014-Oct-27 01:31N 58°58' W 003°18'0 0.0
2014-Oct-27 00:28N 58°58' W 003°18'0 0.0
2014-Oct-26 23:31N 58°58' W 003°18'0 0.0
2014-Oct-26 22:31N 58°58' W 003°18'0 0.0
2014-Oct-26 21:31N 58°58' W 003°18'2 2.0
2014-Oct-26 20:33N 58°57' W 003°15'1413.6
2014-Oct-26 19:30N 58°42' W 003°20'9 9.1
2014-Oct-26 18:33N 58°37' W 003°32'1413.8
2014-Oct-26 17:33N 58°51' W 003°31'1010.1
2014-Oct-26 16:33N 58°58' W 003°18'0 0.0
2014-Oct-26 15:33N 58°58' W 003°18'0 0.0
2014-Oct-26 14:33N 58°58' W 003°18'4 4.0
2014-Oct-26 13:33N 58°54' W 003°13'1414.0
2014-Oct-26 12:32N 58°41' W 003°24'5 5.2
2014-Oct-26 11:31N 58°38' W 003°32'1717.8
2014-Oct-26 10:33N 58°55' W 003°29'6 6.5
2014-Oct-26 09:33N 58°58' W 003°18'0 0.0
2014-Oct-26 08:33N 58°58' W 003°18'0 0.0
2014-Oct-26 07:33N 58°58' W 003°18'0 0.0
2014-Oct-26 06:33N 58°58' W 003°18'0 0.0
2014-Oct-26 05:33N 58°58' W 003°18'0 0.0
2014-Oct-26 04:33N 58°58' W 003°18'0 0.0
2014-Oct-26 03:33N 58°58' W 003°18'0 0.0
2014-Oct-26 02:32N 58°58' W 003°18'0 0.0
2014-Oct-26 01:33N 58°58' W 003°18'0 0.0
2014-Oct-26 00:33N 58°58' W 003°18'0 0.0
2014-Oct-25 23:33N 58°58' W 003°18'0 0.0
2014-Oct-25 22:33N 58°58' W 003°18'0 0.0
2014-Oct-25 21:33N 58°58' W 003°18'0 0.0
2014-Oct-25 20:33N 58°58' W 003°18'4 4.2
2014-Oct-25 19:34N 58°54' W 003°13'1413.8
2014-Oct-25 18:31N 58°41' W 003°24'6 5.7
2014-Oct-25 17:27N 58°37' W 003°32'1516.5
2014-Oct-25 16:33N 58°51' W 003°31'9 8.7
2014-Oct-25 15:28N 58°58' W 003°18'0 0.0
2014-Oct-25 14:31N 58°58' W 003°18'0 0.0
2014-Oct-25 12:33N 58°58' W 003°18'1313.1
2014-Oct-25 11:32N 58°44' W 003°17'10 4.9
2014-Oct-25 09:29N 58°38' W 003°31'1718.0
2014-Oct-25 08:34N 58°55' W 003°29'7 6.3
2014-Oct-25 07:31N 58°58' W 003°18'0 0.0
2014-Oct-25 06:31N 58°58' W 003°18'0 0.0
2014-Oct-25 05:31N 58°58' W 003°18'0 0.0
2014-Oct-25 04:31N 58°58' W 003°18'0 0.0
2014-Oct-25 03:31N 58°58' W 003°18'0 0.0
2014-Oct-25 02:31N 58°58' W 003°18'0 0.0
2014-Oct-25 01:31N 58°58' W 003°18'0 0.0
2014-Oct-25 00:31N 58°58' W 003°18'0 0.0
2014-Oct-24 23:31N 58°58' W 003°18'0 0.0
2014-Oct-24 22:31N 58°58' W 003°18'0 0.0
2014-Oct-24 21:31N 58°58' W 003°18'0 0.0
2014-Oct-24 20:31N 58°58' W 003°18'1 0.9
2014-Oct-24 19:34N 58°57' W 003°17'1615.6
2014-Oct-24 18:33N 58°43' W 003°31'6 4.6
2014-Oct-24 17:19N 58°37' W 003°32'1317.6
2014-Oct-24 16:33N 58°51' W 003°31'10 9.7
2014-Oct-24 15:33N 58°58' W 003°18'0 0.0
2014-Oct-24 14:33N 58°58' W 003°18'1 0.8
2014-Oct-24 13:33N 58°57' W 003°17'1615.7
2014-Oct-24 12:33N 58°43' W 003°30'2 1.9
2014-Oct-24 11:18N 58°41' W 003°31'1317.8
2014-Oct-24 10:33N 58°54' W 003°29'7 6.0
2014-Oct-24 09:20N 58°58' W 003°18'911.1
2014-Oct-24 08:33N 58°51' W 003°28'8 3.9
2014-Oct-24 06:33N 58°43' W 003°30'1514.9
2014-Oct-24 05:33N 58°57' W 003°18'1 0.2
2014-Oct-24 00:10N 58°58' W 003°18'0 0.0
2014-Oct-23 23:28N 58°58' W 003°18'0 0.0
2014-Oct-23 22:28N 58°58' W 003°18'0 0.0
2014-Oct-23 21:28N 58°58' W 003°18'0 0.0
2014-Oct-23 20:28N 58°58' W 003°18'0 0.0
2014-Oct-23 19:33N 58°58' W 003°18'1313.2
2014-Oct-23 18:33N 58°46' W 003°30'10 9.7
2014-Oct-23 17:33N 58°37' W 003°32'1312.7
2014-Oct-23 16:33N 58°49' W 003°29'1010.3
2014-Oct-23 15:33N 58°58' W 003°18'0 0.0
2014-Oct-23 14:33N 58°58' W 003°18'0 0.0
2014-Oct-23 13:33N 58°58' W 003°18'0 0.0
2014-Oct-23 12:33N 58°58' W 003°18'0 0.0
2014-Oct-23 11:33N 58°58' W 003°18'0 0.0
2014-Oct-23 10:33N 58°58' W 003°18'0 0.0
2014-Oct-23 09:33N 58°58' W 003°18'10 9.5
2014-Oct-23 08:33N 58°50' W 003°29'4 2.0
2014-Oct-23 06:33N 58°46' W 003°29'1312.6
2014-Oct-23 05:33N 58°58' W 003°18'0 0.3
2014-Oct-23 04:33N 58°58' W 003°18'0 0.0
2014-Oct-23 03:30N 58°58' W 003°18'0 0.0
2014-Oct-23 02:33N 58°58' W 003°18'0 0.0
2014-Oct-23 01:33N 58°58' W 003°18'0 0.0
2014-Oct-23 00:33N 58°58' W 003°18'0 0.0
2014-Oct-22 23:33N 58°58' W 003°18'0 0.0
2014-Oct-22 22:33N 58°58' W 003°18'0 0.0
2014-Oct-22 21:33N 58°58' W 003°18'0 0.0
2014-Oct-22 20:33N 58°58' W 003°18'0 0.1
2014-Oct-22 19:33N 58°58' W 003°18'1514.6
2014-Oct-22 18:32N 58°44' W 003°30'8 7.1
2014-Oct-22 17:27N 58°37' W 003°32'1314.0
2014-Oct-22 16:33N 58°49' W 003°30'1110.0
2014-Oct-22 15:30N 58°58' W 003°18'0 0.0
2014-Oct-22 14:33N 58°58' W 003°18'0 0.0
2014-Oct-22 13:24N 58°58' W 003°18'0 0.0
2014-Oct-22 12:24N 58°58' W 003°18'1 0.5
2014-Oct-22 09:33N 58°57' W 003°16'1414.2
2014-Oct-22 08:33N 58°43' W 003°20'7 3.5
2014-Oct-22 06:33N 58°46' W 003°32'1414.1
2014-Oct-22 05:33N 58°58' W 003°18'0 0.1
2014-Oct-22 04:25N 58°58' W 003°18'0 0.0
2014-Oct-22 01:25N 58°58' W 003°18'0 0.0
2014-Oct-22 00:04N 58°58' W 003°18'0 0.0
2014-Oct-21 23:28N 58°58' W 003°18'0 0.0
2014-Oct-21 22:31N 58°58' W 003°18'0 0.0
2014-Oct-21 21:31N 58°58' W 003°18'0 0.0
2014-Oct-21 20:31N 58°58' W 003°18'0 0.0
2014-Oct-21 19:28N 58°58' W 003°18'0 0.0
2014-Oct-21 18:31N 58°58' W 003°18'0 0.0
2014-Oct-21 17:31N 58°58' W 003°18'0 0.0
2014-Oct-21 16:31N 58°58' W 003°18'0 0.0
2014-Oct-21 15:28N 58°58' W 003°18'0 0.0
2014-Oct-21 14:28N 58°58' W 003°18'0 0.0
2014-Oct-21 13:28N 58°58' W 003°18'  
Track history (hours):
 
Tides and Currents Weather Stations Pressure Air Temp Water Temp Dewpoint Dewpoint Depression Visibility Wind Speed Wind Dir Waves Ship Positions

Hamnavoe

Operator: NorthLink Orkey & Shetland Ferries Ltd

Last reported at 2014-Oct-31 13:26 UTC. Time now 2014-Oct-31 14:24 UTC.
Position N 58°58' W 003°18'.

Length 112 m; draft 4.4 m.

Type: Ship. MMSI: 235449000.

Date/timePositionNaut miles runAvg speedWind from/ knotsBaromVisibWave heightAir tempDewpointWater temp
2014-Oct-31 13:26N 58°58' W 003°18'0 0.0
2014-Oct-31 12:32N 58°58' W 003°18'0 0.0
2014-Oct-31 11:32N 58°58' W 003°18'0 0.0
2014-Oct-31 10:29N 58°58' W 003°18'8 8.4
2014-Oct-31 09:33N 58°52' W 003°28'9 4.3
2014-Oct-31 07:33N 58°44' W 003°30'1515.2
2014-Oct-31 06:33N 58°57' W 003°18'0 0.3
2014-Oct-31 05:32N 58°58' W 003°18'0 0.0
2014-Oct-31 04:26N 58°58' W 003°18'0 0.0
2014-Oct-31 03:32N 58°58' W 003°18'0 0.0
2014-Oct-31 02:32N 58°58' W 003°18'0 0.0
2014-Oct-31 01:32N 58°58' W 003°18'0 0.0
2014-Oct-31 00:32N 58°58' W 003°18'0 0.0
2014-Oct-30 23:32N 58°58' W 003°18'0 0.0
2014-Oct-30 22:32N 58°58' W 003°18'0 0.0
2014-Oct-30 21:32N 58°58' W 003°18'0 0.0
2014-Oct-30 20:27N 58°58' W 003°18'1213.0
2014-Oct-30 19:33N 58°48' W 003°30'1111.4
2014-Oct-30 18:33N 58°37' W 003°32'9 9.2
2014-Oct-30 17:33N 58°46' W 003°29'1413.6
2014-Oct-30 16:33N 58°58' W 003°18'0 0.0
2014-Oct-30 15:33N 58°58' W 003°18'0 0.0
2014-Oct-30 14:33N 58°58' W 003°18'0 0.0
2014-Oct-30 13:32N 58°58' W 003°18'0 0.0
2014-Oct-30 12:22N 58°58' W 003°18'0 0.0
2014-Oct-30 10:26N 58°58' W 003°18'7 8.3
2014-Oct-30 09:33N 58°53' W 003°28'1615.0
2014-Oct-30 08:29N 58°37' W 003°32'6 6.9
2014-Oct-30 07:33N 58°43' W 003°30'1515.5
2014-Oct-30 06:33N 58°57' W 003°17'1 0.9
2014-Oct-30 05:32N 58°58' W 003°18'0 0.0
2014-Oct-30 00:32N 58°58' W 003°18'0 0.0
2014-Oct-29 20:33N 58°58' W 003°18'1515.4
2014-Oct-29 19:33N 58°44' W 003°31'5 3.5
2014-Oct-29 18:04N 58°39' W 003°32'918.3
2014-Oct-29 17:33N 58°48' W 003°30'12 7.9
2014-Oct-29 16:04N 58°58' W 003°18'0 0.0
2014-Oct-29 14:25N 58°58' W 003°18'0 0.0
2014-Oct-29 13:26N 58°58' W 003°18'0 0.0
2014-Oct-29 12:14N 58°58' W 003°18'0 0.0
2014-Oct-29 10:27N 58°58' W 003°18'910.3
2014-Oct-29 09:33N 58°51' W 003°29'6 2.9
2014-Oct-29 07:33N 58°45' W 003°30'1414.1
2014-Oct-29 06:33N 58°58' W 003°18'0 0.2
2014-Oct-29 05:33N 58°58' W 003°18'0 0.0
2014-Oct-29 04:33N 58°58' W 003°18'0 0.0
2014-Oct-29 03:31N 58°58' W 003°18'0 0.0
2014-Oct-29 02:20N 58°58' W 003°18'0 0.0
2014-Oct-29 01:33N 58°58' W 003°18'0 0.0
2014-Oct-29 00:33N 58°58' W 003°18'0 0.0
2014-Oct-28 23:33N 58°58' W 003°18'0 0.0
2014-Oct-28 22:33N 58°58' W 003°18'0 0.0
2014-Oct-28 21:33N 58°58' W 003°18'0 0.0
2014-Oct-28 20:33N 58°58' W 003°18'1313.0
2014-Oct-28 19:33N 58°46' W 003°30'9 6.1
2014-Oct-28 18:07N 58°38' W 003°31'1018.1
2014-Oct-28 17:33N 58°48' W 003°30'1211.8
2014-Oct-28 16:33N 58°58' W 003°18'0 0.0
2014-Oct-28 12:17N 58°58' W 003°18'0 0.0
2014-Oct-28 11:29N 58°58' W 003°18'0 0.0
2014-Oct-28 10:23N 58°58' W 003°18'8 9.5
2014-Oct-28 09:33N 58°52' W 003°28'1610.9
2014-Oct-28 08:08N 58°37' W 003°32'711.9
2014-Oct-28 07:33N 58°43' W 003°30'1515.4
2014-Oct-28 06:33N 58°57' W 003°18'0 0.5
2014-Oct-28 05:32N 58°58' W 003°18'0 0.0
2014-Oct-28 04:32N 58°58' W 003°18'0 0.0
2014-Oct-28 03:32N 58°58' W 003°18'0 0.0
2014-Oct-28 02:32N 58°58' W 003°18'0 0.0
2014-Oct-28 01:32N 58°58' W 003°18'0 0.0
2014-Oct-28 00:32N 58°58' W 003°18'0 0.0
2014-Oct-27 23:32N 58°58' W 003°18'0 0.0
2014-Oct-27 22:32N 58°58' W 003°18'0 0.0
2014-Oct-27 21:32N 58°58' W 003°18'0 0.0
2014-Oct-27 20:31N 58°58' W 003°18'1313.0
2014-Oct-27 19:33N 58°47' W 003°30'1010.4
2014-Oct-27 18:33N 58°37' W 003°32'1211.6
2014-Oct-27 17:33N 58°48' W 003°30'1111.5
2014-Oct-27 16:33N 58°58' W 003°18'0 0.0
2014-Oct-27 15:30N 58°58' W 003°18'0 0.0
2014-Oct-27 14:30N 58°58' W 003°18'0 0.0
2014-Oct-27 13:30N 58°58' W 003°18'0 0.0
2014-Oct-27 12:30N 58°58' W 003°18'0 0.0
2014-Oct-27 11:30N 58°58' W 003°18'0 0.0
2014-Oct-27 10:30N 58°58' W 003°18'9 9.4
2014-Oct-27 09:33N 58°51' W 003°29'1511.1
2014-Oct-27 08:15N 58°37' W 003°32'812.1
2014-Oct-27 07:33N 58°45' W 003°31'1414.2
2014-Oct-27 06:33N 58°57' W 003°17'1 0.3
2014-Oct-27 04:31N 58°58' W 003°18'0 0.0
2014-Oct-27 03:31N 58°58' W 003°18'0 0.0
2014-Oct-27 02:31N 58°58' W 003°18'0 0.0
2014-Oct-27 01:31N 58°58' W 003°18'0 0.0
2014-Oct-27 00:28N 58°58' W 003°18'0 0.0
2014-Oct-26 23:31N 58°58' W 003°18'0 0.0
2014-Oct-26 22:31N 58°58' W 003°18'0 0.0
2014-Oct-26 21:31N 58°58' W 003°18'2 2.0
2014-Oct-26 20:33N 58°57' W 003°15'1413.6
2014-Oct-26 19:30N 58°42' W 003°20'9 9.1
2014-Oct-26 18:33N 58°37' W 003°32'1413.8
2014-Oct-26 17:33N 58°51' W 003°31'1010.1
2014-Oct-26 16:33N 58°58' W 003°18'0 0.0
2014-Oct-26 15:33N 58°58' W 003°18'0 0.0
2014-Oct-26 14:33N 58°58' W 003°18'4 4.0
2014-Oct-26 13:33N 58°54' W 003°13'1414.0
2014-Oct-26 12:32N 58°41' W 003°24'5 5.2
2014-Oct-26 11:31N 58°38' W 003°32'1717.8
2014-Oct-26 10:33N 58°55' W 003°29'6 6.5
2014-Oct-26 09:33N 58°58' W 003°18'0 0.0
2014-Oct-26 08:33N 58°58' W 003°18'0 0.0
2014-Oct-26 07:33N 58°58' W 003°18'0 0.0
2014-Oct-26 06:33N 58°58' W 003°18'0 0.0
2014-Oct-26 05:33N 58°58' W 003°18'0 0.0
2014-Oct-26 04:33N 58°58' W 003°18'0 0.0
2014-Oct-26 03:33N 58°58' W 003°18'0 0.0
2014-Oct-26 02:32N 58°58' W 003°18'0 0.0
2014-Oct-26 01:33N 58°58' W 003°18'0 0.0
2014-Oct-26 00:33N 58°58' W 003°18'0 0.0
2014-Oct-25 23:33N 58°58' W 003°18'0 0.0
2014-Oct-25 22:33N 58°58' W 003°18'0 0.0
2014-Oct-25 21:33N 58°58' W 003°18'0 0.0
2014-Oct-25 20:33N 58°58' W 003°18'4 4.2
2014-Oct-25 19:34N 58°54' W 003°13'1413.8
2014-Oct-25 18:31N 58°41' W 003°24'6 5.7
2014-Oct-25 17:27N 58°37' W 003°32'1516.5
2014-Oct-25 16:33N 58°51' W 003°31'9 8.7
2014-Oct-25 15:28N 58°58' W 003°18'0 0.0
2014-Oct-25 14:31N 58°58' W 003°18'0 0.0
2014-Oct-25 12:33N 58°58' W 003°18'1313.1
2014-Oct-25 11:32N 58°44' W 003°17'10 4.9
2014-Oct-25 09:29N 58°38' W 003°31'1718.0
2014-Oct-25 08:34N 58°55' W 003°29'7 6.3
2014-Oct-25 07:31N 58°58' W 003°18'0 0.0
2014-Oct-25 06:31N 58°58' W 003°18'0 0.0
2014-Oct-25 05:31N 58°58' W 003°18'0 0.0
2014-Oct-25 04:31N 58°58' W 003°18'0 0.0
2014-Oct-25 03:31N 58°58' W 003°18'0 0.0
2014-Oct-25 02:31N 58°58' W 003°18'0 0.0
2014-Oct-25 01:31N 58°58' W 003°18'0 0.0
2014-Oct-25 00:31N 58°58' W 003°18'0 0.0
2014-Oct-24 23:31N 58°58' W 003°18'0 0.0
2014-Oct-24 22:31N 58°58' W 003°18'0 0.0
2014-Oct-24 21:31N 58°58' W 003°18'0 0.0
2014-Oct-24 20:31N 58°58' W 003°18'1 0.9
2014-Oct-24 19:34N 58°57' W 003°17'1615.6
2014-Oct-24 18:33N 58°43' W 003°31'6 4.6
2014-Oct-24 17:19N 58°37' W 003°32'1317.6
2014-Oct-24 16:33N 58°51' W 003°31'10 9.7
2014-Oct-24 15:33N 58°58' W 003°18'0 0.0
2014-Oct-24 14:33N 58°58' W 003°18'1 0.8
2014-Oct-24 13:33N 58°57' W 003°17'1615.7
2014-Oct-24 12:33N 58°43' W 003°30'2 1.9
2014-Oct-24 11:18N 58°41' W 003°31'1317.8
2014-Oct-24 10:33N 58°54' W 003°29'7 6.0
2014-Oct-24 09:20N 58°58' W 003°18'911.1
2014-Oct-24 08:33N 58°51' W 003°28'8 3.9
2014-Oct-24 06:33N 58°43' W 003°30'1514.9
2014-Oct-24 05:33N 58°57' W 003°18'1 0.2
2014-Oct-24 00:10N 58°58' W 003°18'0 0.0
2014-Oct-23 23:28N 58°58' W 003°18'0 0.0
2014-Oct-23 22:28N 58°58' W 003°18'0 0.0
2014-Oct-23 21:28N 58°58' W 003°18'0 0.0
2014-Oct-23 20:28N 58°58' W 003°18'0 0.0
2014-Oct-23 19:33N 58°58' W 003°18'1313.2
2014-Oct-23 18:33N 58°46' W 003°30'10 9.7
2014-Oct-23 17:33N 58°37' W 003°32'1312.7
2014-Oct-23 16:33N 58°49' W 003°29'1010.3
2014-Oct-23 15:33N 58°58' W 003°18'0 0.0
2014-Oct-23 14:33N 58°58' W 003°18'0 0.0
2014-Oct-23 13:33N 58°58' W 003°18'0 0.0
2014-Oct-23 12:33N 58°58' W 003°18'0 0.0
2014-Oct-23 11:33N 58°58' W 003°18'0 0.0
2014-Oct-23 10:33N 58°58' W 003°18'0 0.0
2014-Oct-23 09:33N 58°58' W 003°18'10 9.5
2014-Oct-23 08:33N 58°50' W 003°29'4 2.0
2014-Oct-23 06:33N 58°46' W 003°29'1312.6
2014-Oct-23 05:33N 58°58' W 003°18'0 0.3
2014-Oct-23 04:33N 58°58' W 003°18'0 0.0
2014-Oct-23 03:30N 58°58' W 003°18'0 0.0
2014-Oct-23 02:33N 58°58' W 003°18'0 0.0
2014-Oct-23 01:33N 58°58' W 003°18'0 0.0
2014-Oct-23 00:33N 58°58' W 003°18'0 0.0
2014-Oct-22 23:33N 58°58' W 003°18'0 0.0
2014-Oct-22 22:33N 58°58' W 003°18'0 0.0
2014-Oct-22 21:33N 58°58' W 003°18'0 0.0
2014-Oct-22 20:33N 58°58' W 003°18'0 0.1
2014-Oct-22 19:33N 58°58' W 003°18'1514.6
2014-Oct-22 18:32N 58°44' W 003°30'8 7.1
2014-Oct-22 17:27N 58°37' W 003°32'1314.0
2014-Oct-22 16:33N 58°49' W 003°30'1110.0
2014-Oct-22 15:30N 58°58' W 003°18'0 0.0
2014-Oct-22 14:33N 58°58' W 003°18'0 0.0
2014-Oct-22 13:24N 58°58' W 003°18'0 0.0
2014-Oct-22 12:24N 58°58' W 003°18'1 0.5
2014-Oct-22 09:33N 58°57' W 003°16'1414.2
2014-Oct-22 08:33N 58°43' W 003°20'7 3.5
2014-Oct-22 06:33N 58°46' W 003°32'1414.1
2014-Oct-22 05:33N 58°58' W 003°18'0 0.1
2014-Oct-22 04:25N 58°58' W 003°18'0 0.0
2014-Oct-22 01:25N 58°58' W 003°18'0 0.0
2014-Oct-22 00:04N 58°58' W 003°18'0 0.0
2014-Oct-21 23:28N 58°58' W 003°18'0 0.0
2014-Oct-21 22:31N 58°58' W 003°18'0 0.0
2014-Oct-21 21:31N 58°58' W 003°18'0 0.0
2014-Oct-21 20:31N 58°58' W 003°18'0 0.0
2014-Oct-21 19:28N 58°58' W 003°18'0 0.0
2014-Oct-21 18:31N 58°58' W 003°18'0 0.0
2014-Oct-21 17:31N 58°58' W 003°18'0 0.0
2014-Oct-21 16:31N 58°58' W 003°18'0 0.0
2014-Oct-21 15:28N 58°58' W 003°18'0 0.0
2014-Oct-21 14:28N 58°58' W 003°18'0 0.0
2014-Oct-21 13:28N 58°58' W 003°18'  

Dump ship's entire track history